Soaring Guidance
Issued by NWS Reno, NV

Home | Current Version | Previous Version | Text Only | Print | Product List | Glossary On
Versions: 1 2 3 4 5 6 7 8 9 10 11 12 13 14
419
UXUS97 KREV 241339
SRGREV

SOARING FORECAST
NATIONAL WEATHER SERVICE - RENO NV
700 AM PDT MON APR 24 2017

THIS SOARING FORECAST IS FOR THE EASTERN SIERRA AND WESTERN NEVADA
WITH SPECIFIC INDICES FOR THE GREATER RENO AREA.

THIS FORECAST IS PREPARED DAILY BY 700 AM AND IS NOT UPDATED.

FOR CURRENT FLIGHT CONDITIONS...FORECASTS...AND ADVISORIES...ACCESS
YOUR LOCAL BRIEFING OUTLET OR FLIGHT SERVICE STATION.

*******************************************************************
FORECASTED LOCAL INDICES FOR RENO:        TODAY     YESTERDAY
FORECASTED MAX TEMP AT RENO (DEG F).....     59          70
FORECASTED TRIGGER TEMPERATURE (DEG F)..     52          59
   EXCEEDED YESTERDAY BY 1055 AM PDT
FORECASTED MAXIMUM ALTITUDE (FT MSL)....  12500       14600
FORECASTED SOARING INDEX (FPM)..........    615         828
FORECASTED K-INDEX.........VALID 18Z....     23           9
FORECASTED K-INDEX.........VALID 00Z....     24           7
FORECASTED LIFTED INDEX....VALID 18Z....      8           5
FORECASTED LIFTED INDEX....VALID 00Z....      5           7

AFTERNOON WINDS ALOFT FORECAST
MSL (FT) WIND/TEMP
9000  2737/-03
10000 2839/-04
12000 3043/-07
14000 2947/-10
16000 2952/-13
18000 2968/-16
24000 2986/-25
30000 2998/-41
34000 8017/-51
39000 8006/-61

SLIDE MOUNTAIN DATA:
     DATE       TIME     TEMP  DEWPT   RH         WIND (MPH)
                        (F)   (F)           | DIR  SPEED GUST
2017-04-24    04:30      22    22     97    | 175   75   91
2017-04-24    04:20      22    21     96    | 174   69   81
2017-04-24    04:00      22    21     96    | 171   69   82
2017-04-24    03:50      21    20     96    | 164   69   83

RENO TAF FORECAST:
KRNO 241134Z 2412/2512 VRB03KT P6SM SCT060 BKN120
     FM241700 28020G32KT P6SM VCSH BKN090 OVC150
     FM250200 30014G26KT P6SM SCT090 BKN150
     FM250500 30007KT P6SM SCT090

CARSON CITY TAF FORECAST:
KCXP 241134Z 2412/2512 22010G18KT P6SM SCT035 BKN060
     FM241700 23016G28KT P6SM VCSH BKN080 OVC150
     FM250100 26011G19KT P6SM SCT080 BKN150
     FM250500 26006KT P6SM SCT080

OUTLOOK FOR THE RENO-CARSON CITY-MINDEN AREA:
.TUESDAY...MOSTLY CLOUDY. HIGHS 59 TO 64. NORTHWEST WINDS AROUND
10 MPH.

SUNRISE AND SUNSET
APRIL 24 2017.........SUNRISE   609 AM PDT   SUNSET   746 PM PDT
APRIL 25 2017.........SUNRISE   607 AM PDT   SUNSET   747 PM PDT



USA.gov is the U.S. government's official web portal to all federal, state and local government web resources and services.